الصفحة الرئيسية
METAR-TAF:

METAR-TAF

مطار :

إيركوتسك, روسيا

دائرة عرض: 52-16N, خط طول: 104-19E, ارتفاع: 513 متر

مراقبة الطقس الحالي

تاريخ ووقت الإصدار 15 دقيقة قبل الساعة 02:30UTC
ريح 4 عقدة من الشرق/الشمال الشرقي
درجة الحرارة 4°درجة مئوية
الرطوبة 81%
ضغط 1008 hPa
الرؤية 10 كم أو أكثر
الغيوم لا تقل 1500 م ولا وجود لمزنة ركامية السحاب الأسود

METAR: UIII 230230Z 07002MPS CAVOK 04/01 Q1008 R12/CLRD60 NOSIG RMK QFE714/0952

زمن: 10:45 (02:45 UTC)

توقعات

تاريخ ووقت الإصدار 45 دقيقة قبل الساعة 02:00UTC
التوقعات صالحة من23 الساعة 03 UTC إلى 24 الساعة 03 UTC
ريح 6 عقدة من الجنوب/الجنوب الشرقي
الرؤية 10 كم أو أكثر
أصبح
من 23 الساعة 08 UTC إلى 23 الساعة 10 UTC
ريح 10 عقدة من الشمال الغربي
غيوم مفككة على ارتفاع 1500 قدم, مزنة ركامية.
مؤقت
من 23 الساعة 14 UTC إلى 24 الساعة 03 UTC
ريح 19 عقدة من الشمال الغربي
الرؤية: 1500 متر
غيوم مفككة على ارتفاع 400 قدم, مزنة ركامية.
زخات ثلجية, مطر

TAF: UIII 230200Z 2303/2403 16003MPS 9999 NSC BECMG 2308/2310 31005MPS BKN015CB TEMPO 2314/2403 31010MPS 1500 SHSNRA BKN004CB

أرصاد الطقس والتوقعات من أكثر من 4000 مطار (تقارير الطقس للمطار METAR والتنبؤ بالطقس بالمطارTAF).

المحطات المتاحة هي النقط الصفراء والحمراء على الخريطة.

حرك المؤشر فوق النقطة لمعرفة اسم المحطة.

ثم انقر لمعرفة أرصاد وتوقعات الطقس.

لتغيير الخارطة: اضغط على الأزرار الخضراء مع رمز الصليب الأسود للتكبير. على الزر الأخضر مع شرطة للتصغير، أو على الأسهم الخضراء للخرائط المجاورة.


METAR-TAF: